sensor_id;sensor_type;location;lat;lon;timestamp;temperature;humidity
8489;DHT22;4281;45.772;12.852;2022-08-21T00:01:12;24.90;99.90
8489;DHT22;4281;45.772;12.852;2022-08-21T00:03:41;24.90;99.90
8489;DHT22;4281;45.772;12.852;2022-08-21T00:06:10;24.20;99.90
8489;DHT22;4281;45.772;12.852;2022-08-21T00:08:40;23.90;99.90
8489;DHT22;4281;45.772;12.852;2022-08-21T00:11:09;23.80;99.90
8489;DHT22;4281;45.772;12.852;2022-08-21T00:13:39;23.70;99.90
8489;DHT22;4281;45.772;12.852;2022-08-21T00:16:08;23.60;99.90
8489;DHT22;4281;45.772;12.852;2022-08-21T00:18:37;23.80;99.90
8489;DHT22;4281;45.772;12.852;2022-08-21T00:21:05;24.10;99.90
8489;DHT22;4281;45.772;12.852;2022-08-21T00:23:34;24.20;99.90
8489;DHT22;4281;45.772;12.852;2022-08-21T00:26:03;24.40;99.90
8489;DHT22;4281;45.772;12.852;2022-08-21T00:28:32;24.30;99.90
8489;DHT22;4281;45.772;12.852;2022-08-21T00:31:02;24.40;99.90
8489;DHT22;4281;45.772;12.852;2022-08-21T00:33:31;24.30;99.90
8489;DHT22;4281;45.772;12.852;2022-08-21T00:36:01;24.00;99.90
8489;DHT22;4281;45.772;12.852;2022-08-21T00:38:30;23.40;99.90
8489;DHT22;4281;45.772;12.852;2022-08-21T00:41:00;23.00;99.90
8489;DHT22;4281;45.772;12.852;2022-08-21T00:43:49;22.80;99.90
8489;DHT22;4281;45.772;12.852;2022-08-21T00:46:20;23.20;99.90
8489;DHT22;4281;45.772;12.852;2022-08-21T00:48:54;23.60;99.90
8489;DHT22;4281;45.772;12.852;2022-08-21T00:51:30;23.90;99.90
8489;DHT22;4281;45.772;12.852;2022-08-21T00:54:05;23.90;99.90
8489;DHT22;4281;45.772;12.852;2022-08-21T00:56:46;23.30;99.90
8489;DHT22;4281;45.772;12.852;2022-08-21T00:59:18;23.10;99.90
8489;DHT22;4281;45.772;12.852;2022-08-21T01:01:49;23.30;99.90
8489;DHT22;4281;45.772;12.852;2022-08-21T01:04:20;23.50;99.90
8489;DHT22;4281;45.772;12.852;2022-08-21T01:06:48;23.60;99.90
8489;DHT22;4281;45.772;12.852;2022-08-21T01:09:18;23.60;99.90
8489;DHT22;4281;45.772;12.852;2022-08-21T01:11:47;23.70;99.90
8489;DHT22;4281;45.772;12.852;2022-08-21T01:14:16;24.00;99.90
8489;DHT22;4281;45.772;12.852;2022-08-21T01:16:50;24.10;99.90
8489;DHT22;4281;45.772;12.852;2022-08-21T01:19:21;23.90;99.90
8489;DHT22;4281;45.772;12.852;2022-08-21T01:21:52;23.70;99.90
8489;DHT22;4281;45.772;12.852;2022-08-21T01:24:20;23.80;99.90
8489;DHT22;4281;45.772;12.852;2022-08-21T01:26:50;24.00;99.90
8489;DHT22;4281;45.772;12.852;2022-08-21T01:29:26;23.70;99.90
8489;DHT22;4281;45.772;12.852;2022-08-21T01:31:58;23.70;99.90
8489;DHT22;4281;45.772;12.852;2022-08-21T01:34:26;23.90;99.90
8489;DHT22;4281;45.772;12.852;2022-08-21T01:36:56;23.70;99.90
8489;DHT22;4281;45.772;12.852;2022-08-21T01:39:25;23.90;99.90
8489;DHT22;4281;45.772;12.852;2022-08-21T01:41:53;24.10;99.90
8489;DHT22;4281;45.772;12.852;2022-08-21T01:44:21;24.10;99.90
8489;DHT22;4281;45.772;12.852;2022-08-21T01:46:50;24.00;99.90
8489;DHT22;4281;45.772;12.852;2022-08-21T01:49:19;23.70;99.90
8489;DHT22;4281;45.772;12.852;2022-08-21T01:51:47;23.90;99.90
8489;DHT22;4281;45.772;12.852;2022-08-21T01:54:17;24.10;99.90
8489;DHT22;4281;45.772;12.852;2022-08-21T01:56:48;24.20;99.90
8489;DHT22;4281;45.772;12.852;2022-08-21T01:59:18;24.20;99.90
8489;DHT22;4281;45.772;12.852;2022-08-21T02:01:46;24.20;99.90
8489;DHT22;4281;45.772;12.852;2022-08-21T02:04:15;24.30;99.90
8489;DHT22;4281;45.772;12.852;2022-08-21T02:06:43;24.40;99.90
8489;DHT22;4281;45.772;12.852;2022-08-21T02:09:12;24.50;99.90
8489;DHT22;4281;45.772;12.852;2022-08-21T02:11:42;24.40;99.90
8489;DHT22;4281;45.772;12.852;2022-08-21T02:14:12;24.20;99.90
8489;DHT22;4281;45.772;12.852;2022-08-21T02:16:58;24.10;99.90
8489;DHT22;4281;45.772;12.852;2022-08-21T02:19:36;24.20;99.90
8489;DHT22;4281;45.772;12.852;2022-08-21T02:22:07;24.10;99.90
8489;DHT22;4281;45.772;12.852;2022-08-21T02:24:36;23.90;99.90
8489;DHT22;4281;45.772;12.852;2022-08-21T02:27:23;23.70;99.90
8489;DHT22;4281;45.772;12.852;2022-08-21T02:29:53;23.20;99.90
8489;DHT22;4281;45.772;12.852;2022-08-21T02:32:21;23.20;99.90
8489;DHT22;4281;45.772;12.852;2022-08-21T02:34:50;23.60;99.90
8489;DHT22;4281;45.772;12.852;2022-08-21T02:37:19;23.90;99.90
8489;DHT22;4281;45.772;12.852;2022-08-21T02:39:47;23.90;99.90
8489;DHT22;4281;45.772;12.852;2022-08-21T02:42:16;24.20;99.90
8489;DHT22;4281;45.772;12.852;2022-08-21T02:44:46;24.20;99.90
8489;DHT22;4281;45.772;12.852;2022-08-21T02:47:15;24.30;99.90
8489;DHT22;4281;45.772;12.852;2022-08-21T02:49:43;24.20;99.90
8489;DHT22;4281;45.772;12.852;2022-08-21T02:52:11;24.10;99.90
8489;DHT22;4281;45.772;12.852;2022-08-21T02:54:41;23.90;99.90
8489;DHT22;4281;45.772;12.852;2022-08-21T02:57:09;23.70;99.90
8489;DHT22;4281;45.772;12.852;2022-08-21T02:59:37;23.90;99.90
8489;DHT22;4281;45.772;12.852;2022-08-21T03:02:09;24.10;99.90
8489;DHT22;4281;45.772;12.852;2022-08-21T03:04:38;24.20;99.90
8489;DHT22;4281;45.772;12.852;2022-08-21T03:07:12;24.10;99.90
8489;DHT22;4281;45.772;12.852;2022-08-21T03:09:42;23.20;99.90
8489;DHT22;4281;45.772;12.852;2022-08-21T03:12:21;23.10;99.90
8489;DHT22;4281;45.772;12.852;2022-08-21T03:14:52;23.40;99.90
8489;DHT22;4281;45.772;12.852;2022-08-21T03:17:22;23.60;99.90
8489;DHT22;4281;45.772;12.852;2022-08-21T03:19:56;23.70;99.90
8489;DHT22;4281;45.772;12.852;2022-08-21T03:22:24;23.60;99.90
8489;DHT22;4281;45.772;12.852;2022-08-21T03:24:54;23.60;99.90
8489;DHT22;4281;45.772;12.852;2022-08-21T03:27:24;23.60;99.90
8489;DHT22;4281;45.772;12.852;2022-08-21T03:29:55;23.40;99.90
8489;DHT22;4281;45.772;12.852;2022-08-21T03:32:26;23.30;99.90
8489;DHT22;4281;45.772;12.852;2022-08-21T03:34:56;23.40;99.90
8489;DHT22;4281;45.772;12.852;2022-08-21T03:37:24;23.40;99.90
8489;DHT22;4281;45.772;12.852;2022-08-21T03:39:52;23.40;99.90
8489;DHT22;4281;45.772;12.852;2022-08-21T03:42:21;23.40;99.90
8489;DHT22;4281;45.772;12.852;2022-08-21T03:44:50;23.40;99.90
8489;DHT22;4281;45.772;12.852;2022-08-21T03:47:18;23.30;99.90
8489;DHT22;4281;45.772;12.852;2022-08-21T03:49:48;23.10;99.90
8489;DHT22;4281;45.772;12.852;2022-08-21T03:52:17;23.10;99.90
8489;DHT22;4281;45.772;12.852;2022-08-21T03:54:45;23.20;99.90
8489;DHT22;4281;45.772;12.852;2022-08-21T03:57:14;23.30;99.90
8489;DHT22;4281;45.772;12.852;2022-08-21T03:59:43;23.50;99.90
8489;DHT22;4281;45.772;12.852;2022-08-21T04:02:13;23.60;99.90
8489;DHT22;4281;45.772;12.852;2022-08-21T04:04:43;23.60;99.90
8489;DHT22;4281;45.772;12.852;2022-08-21T04:07:13;23.20;99.90
8489;DHT22;4281;45.772;12.852;2022-08-21T04:09:42;22.80;99.90
8489;DHT22;4281;45.772;12.852;2022-08-21T04:12:10;22.50;99.90
8489;DHT22;4281;45.772;12.852;2022-08-21T04:14:39;22.50;99.90
8489;DHT22;4281;45.772;12.852;2022-08-21T04:17:08;22.30;99.90
8489;DHT22;4281;45.772;12.852;2022-08-21T04:19:37;22.50;99.90
8489;DHT22;4281;45.772;12.852;2022-08-21T04:22:05;22.70;99.90
8489;DHT22;4281;45.772;12.852;2022-08-21T04:24:35;22.70;99.90
8489;DHT22;4281;45.772;12.852;2022-08-21T04:27:04;23.00;99.90
8489;DHT22;4281;45.772;12.852;2022-08-21T04:29:32;23.00;99.90
8489;DHT22;4281;45.772;12.852;2022-08-21T04:32:06;22.70;99.90
8489;DHT22;4281;45.772;12.852;2022-08-21T04:34:34;22.50;99.90
8489;DHT22;4281;45.772;12.852;2022-08-21T04:37:03;22.10;99.90
8489;DHT22;4281;45.772;12.852;2022-08-21T04:39:32;22.10;99.90
8489;DHT22;4281;45.772;12.852;2022-08-21T04:42:02;22.50;99.90
8489;DHT22;4281;45.772;12.852;2022-08-21T04:44:31;22.80;99.90
8489;DHT22;4281;45.772;12.852;2022-08-21T04:47:00;22.90;99.90
8489;DHT22;4281;45.772;12.852;2022-08-21T04:49:28;22.70;99.90
8489;DHT22;4281;45.772;12.852;2022-08-21T04:51:57;22.90;99.90
8489;DHT22;4281;45.772;12.852;2022-08-21T04:54:26;22.10;99.90
8489;DHT22;4281;45.772;12.852;2022-08-21T04:56:58;21.90;99.90
8489;DHT22;4281;45.772;12.852;2022-08-21T04:59:45;22.30;99.90
8489;DHT22;4281;45.772;12.852;2022-08-21T05:02:14;22.50;99.90
8489;DHT22;4281;45.772;12.852;2022-08-21T05:04:46;22.30;99.90
8489;DHT22;4281;45.772;12.852;2022-08-21T05:07:21;22.60;99.90
8489;DHT22;4281;45.772;12.852;2022-08-21T05:10:09;22.80;99.90
8489;DHT22;4281;45.772;12.852;2022-08-21T05:12:40;22.80;99.90
8489;DHT22;4281;45.772;12.852;2022-08-21T05:15:11;22.40;99.90
8489;DHT22;4281;45.772;12.852;2022-08-21T05:17:40;22.40;99.90
8489;DHT22;4281;45.772;12.852;2022-08-21T05:20:18;22.10;99.90
8489;DHT22;4281;45.772;12.852;2022-08-21T05:22:47;22.20;99.90
8489;DHT22;4281;45.772;12.852;2022-08-21T05:25:16;22.30;99.90
8489;DHT22;4281;45.772;12.852;2022-08-21T05:27:48;22.60;99.90
8489;DHT22;4281;45.772;12.852;2022-08-21T05:30:20;22.30;99.90
8489;DHT22;4281;45.772;12.852;2022-08-21T05:32:48;22.50;99.90
8489;DHT22;4281;45.772;12.852;2022-08-21T05:35:17;22.30;99.90
8489;DHT22;4281;45.772;12.852;2022-08-21T05:37:45;22.40;99.90
8489;DHT22;4281;45.772;12.852;2022-08-21T05:40:14;22.20;99.90
8489;DHT22;4281;45.772;12.852;2022-08-21T05:42:49;22.30;99.90
8489;DHT22;4281;45.772;12.852;2022-08-21T05:45:23;22.50;99.90
8489;DHT22;4281;45.772;12.852;2022-08-21T05:48:11;22.70;99.90
8489;DHT22;4281;45.772;12.852;2022-08-21T05:50:40;22.90;99.90
8489;DHT22;4281;45.772;12.852;2022-08-21T05:53:09;23.20;99.90
8489;DHT22;4281;45.772;12.852;2022-08-21T05:55:38;23.30;99.90
8489;DHT22;4281;45.772;12.852;2022-08-21T05:58:13;23.20;99.90
8489;DHT22;4281;45.772;12.852;2022-08-21T06:03:30;23.20;99.90
8489;DHT22;4281;45.772;12.852;2022-08-21T06:06:00;23.50;99.90
8489;DHT22;4281;45.772;12.852;2022-08-21T06:08:29;23.60;99.90
8489;DHT22;4281;45.772;12.852;2022-08-21T06:10:59;23.60;99.90
8489;DHT22;4281;45.772;12.852;2022-08-21T06:13:28;23.80;99.90
8489;DHT22;4281;45.772;12.852;2022-08-21T06:16:02;23.70;99.90
8489;DHT22;4281;45.772;12.852;2022-08-21T06:18:32;23.90;99.90
8489;DHT22;4281;45.772;12.852;2022-08-21T06:21:01;23.90;99.90
8489;DHT22;4281;45.772;12.852;2022-08-21T06:23:48;24.20;99.90
8489;DHT22;4281;45.772;12.852;2022-08-21T06:26:16;24.20;99.90
8489;DHT22;4281;45.772;12.852;2022-08-21T06:28:44;24.10;99.90
8489;DHT22;4281;45.772;12.852;2022-08-21T06:31:15;24.20;99.90
8489;DHT22;4281;45.772;12.852;2022-08-21T06:33:45;24.40;99.90
8489;DHT22;4281;45.772;12.852;2022-08-21T06:36:14;24.30;99.90
8489;DHT22;4281;45.772;12.852;2022-08-21T06:38:42;24.20;99.90
8489;DHT22;4281;45.772;12.852;2022-08-21T06:41:17;24.20;99.90
8489;DHT22;4281;45.772;12.852;2022-08-21T06:43:52;24.30;99.90
8489;DHT22;4281;45.772;12.852;2022-08-21T06:46:21;24.40;99.90
8489;DHT22;4281;45.772;12.852;2022-08-21T06:48:51;24.50;99.90
8489;DHT22;4281;45.772;12.852;2022-08-21T06:51:20;24.70;99.90
8489;DHT22;4281;45.772;12.852;2022-08-21T06:53:48;24.70;99.90
8489;DHT22;4281;45.772;12.852;2022-08-21T06:56:17;24.70;99.90
8489;DHT22;4281;45.772;12.852;2022-08-21T06:58:46;24.60;99.90
8489;DHT22;4281;45.772;12.852;2022-08-21T07:01:14;24.70;99.90
8489;DHT22;4281;45.772;12.852;2022-08-21T07:03:43;24.80;99.90
8489;DHT22;4281;45.772;12.852;2022-08-21T07:06:13;24.90;99.90
8489;DHT22;4281;45.772;12.852;2022-08-21T07:08:41;25.00;99.90
8489;DHT22;4281;45.772;12.852;2022-08-21T07:11:14;24.90;99.90
8489;DHT22;4281;45.772;12.852;2022-08-21T07:13:45;24.80;99.90
8489;DHT22;4281;45.772;12.852;2022-08-21T07:16:14;24.90;99.90
8489;DHT22;4281;45.772;12.852;2022-08-21T07:18:42;25.00;99.90
8489;DHT22;4281;45.772;12.852;2022-08-21T07:21:13;25.20;99.90
8489;DHT22;4281;45.772;12.852;2022-08-21T07:23:43;25.20;99.90
8489;DHT22;4281;45.772;12.852;2022-08-21T07:26:12;25.40;99.90
8489;DHT22;4281;45.772;12.852;2022-08-21T07:28:42;25.40;99.90
8489;DHT22;4281;45.772;12.852;2022-08-21T07:31:14;25.70;99.90
8489;DHT22;4281;45.772;12.852;2022-08-21T07:33:44;25.80;99.90
8489;DHT22;4281;45.772;12.852;2022-08-21T07:36:14;26.00;99.90
8489;DHT22;4281;45.772;12.852;2022-08-21T07:38:44;26.10;99.90
8489;DHT22;4281;45.772;12.852;2022-08-21T07:41:15;25.80;99.90
8489;DHT22;4281;45.772;12.852;2022-08-21T07:43:45;26.00;99.90
8489;DHT22;4281;45.772;12.852;2022-08-21T07:46:14;26.30;99.90
8489;DHT22;4281;45.772;12.852;2022-08-21T07:48:43;26.30;99.90
8489;DHT22;4281;45.772;12.852;2022-08-21T07:51:15;26.40;99.90
8489;DHT22;4281;45.772;12.852;2022-08-21T07:53:48;26.50;99.90
8489;DHT22;4281;45.772;12.852;2022-08-21T07:56:16;26.40;99.90
8489;DHT22;4281;45.772;12.852;2022-08-21T07:58:45;26.20;99.90
8489;DHT22;4281;45.772;12.852;2022-08-21T08:01:14;26.40;99.90
8489;DHT22;4281;45.772;12.852;2022-08-21T08:03:43;26.60;99.90
8489;DHT22;4281;45.772;12.852;2022-08-21T08:06:12;26.70;99.90
8489;DHT22;4281;45.772;12.852;2022-08-21T08:08:42;26.80;99.90
8489;DHT22;4281;45.772;12.852;2022-08-21T08:11:12;26.90;99.90
8489;DHT22;4281;45.772;12.852;2022-08-21T08:13:45;26.80;99.90
8489;DHT22;4281;45.772;12.852;2022-08-21T08:16:13;26.90;99.90
8489;DHT22;4281;45.772;12.852;2022-08-21T08:18:42;27.10;99.90
8489;DHT22;4281;45.772;12.852;2022-08-21T08:21:12;27.20;99.90
8489;DHT22;4281;45.772;12.852;2022-08-21T08:23:42;27.40;99.90
8489;DHT22;4281;45.772;12.852;2022-08-21T08:26:12;27.40;99.90
8489;DHT22;4281;45.772;12.852;2022-08-21T08:28:42;27.80;99.90
8489;DHT22;4281;45.772;12.852;2022-08-21T08:31:10;27.80;99.90
8489;DHT22;4281;45.772;12.852;2022-08-21T08:33:39;27.80;99.90
8489;DHT22;4281;45.772;12.852;2022-08-21T08:36:13;27.80;99.90
8489;DHT22;4281;45.772;12.852;2022-08-21T08:38:46;27.90;99.90
8489;DHT22;4281;45.772;12.852;2022-08-21T08:41:17;27.90;99.90
8489;DHT22;4281;45.772;12.852;2022-08-21T08:43:50;28.00;99.90
8489;DHT22;4281;45.772;12.852;2022-08-21T08:46:33;28.30;99.90
8489;DHT22;4281;45.772;12.852;2022-08-21T08:49:08;28.50;99.90
8489;DHT22;4281;45.772;12.852;2022-08-21T08:51:44;28.40;99.90
8489;DHT22;4281;45.772;12.852;2022-08-21T08:54:25;28.40;99.90
8489;DHT22;4281;45.772;12.852;2022-08-21T08:56:59;28.40;99.90
8489;DHT22;4281;45.772;12.852;2022-08-21T08:59:33;28.50;99.90
8489;DHT22;4281;45.772;12.852;2022-08-21T09:02:04;28.60;99.90
8489;DHT22;4281;45.772;12.852;2022-08-21T09:04:33;28.60;99.90
8489;DHT22;4281;45.772;12.852;2022-08-21T09:07:10;28.70;99.90
8489;DHT22;4281;45.772;12.852;2022-08-21T09:09:51;28.90;99.90
8489;DHT22;4281;45.772;12.852;2022-08-21T09:12:33;28.90;99.90
8489;DHT22;4281;45.772;12.852;2022-08-21T09:15:12;28.80;99.90
8489;DHT22;4281;45.772;12.852;2022-08-21T09:20:44;29.00;99.90
8489;DHT22;4281;45.772;12.852;2022-08-21T09:23:25;29.20;99.90
8489;DHT22;4281;45.772;12.852;2022-08-21T09:26:04;29.10;99.90
8489;DHT22;4281;45.772;12.852;2022-08-21T09:28:36;29.00;99.90
8489;DHT22;4281;45.772;12.852;2022-08-21T09:31:07;29.10;99.90
8489;DHT22;4281;45.772;12.852;2022-08-21T09:33:35;29.00;99.90
8489;DHT22;4281;45.772;12.852;2022-08-21T09:36:04;29.00;99.90
8489;DHT22;4281;45.772;12.852;2022-08-21T09:38:34;29.10;99.90
8489;DHT22;4281;45.772;12.852;2022-08-21T09:41:07;29.30;99.90
8489;DHT22;4281;45.772;12.852;2022-08-21T09:43:36;29.30;99.90
8489;DHT22;4281;45.772;12.852;2022-08-21T09:46:33;29.30;99.90
8489;DHT22;4281;45.772;12.852;2022-08-21T09:52:16;29.60;99.90
8489;DHT22;4281;45.772;12.852;2022-08-21T09:54:46;29.60;99.90
8489;DHT22;4281;45.772;12.852;2022-08-21T09:57:22;29.50;99.90
8489;DHT22;4281;45.772;12.852;2022-08-21T10:00:19;29.40;99.90
8489;DHT22;4281;45.772;12.852;2022-08-21T10:02:51;29.50;99.90
8489;DHT22;4281;45.772;12.852;2022-08-21T10:05:23;29.60;99.90
8489;DHT22;4281;45.772;12.852;2022-08-21T10:07:52;29.70;99.90
8489;DHT22;4281;45.772;12.852;2022-08-21T10:10:24;29.80;99.90
8489;DHT22;4281;45.772;12.852;2022-08-21T10:13:00;30.00;99.90
8489;DHT22;4281;45.772;12.852;2022-08-21T10:15:45;30.10;99.90
8489;DHT22;4281;45.772;12.852;2022-08-21T10:18:20;30.10;99.90
8489;DHT22;4281;45.772;12.852;2022-08-21T10:20:52;30.20;99.90
8489;DHT22;4281;45.772;12.852;2022-08-21T10:23:38;30.10;99.90
8489;DHT22;4281;45.772;12.852;2022-08-21T10:26:20;30.20;99.90
8489;DHT22;4281;45.772;12.852;2022-08-21T10:29:02;30.20;99.90
8489;DHT22;4281;45.772;12.852;2022-08-21T10:31:39;30.00;99.90
8489;DHT22;4281;45.772;12.852;2022-08-21T10:34:20;30.00;99.90
8489;DHT22;4281;45.772;12.852;2022-08-21T10:37:01;30.30;99.90
8489;DHT22;4281;45.772;12.852;2022-08-21T10:39:43;30.20;99.90
8489;DHT22;4281;45.772;12.852;2022-08-21T10:42:27;30.40;99.90
8489;DHT22;4281;45.772;12.852;2022-08-21T10:45:15;30.40;99.90
8489;DHT22;4281;45.772;12.852;2022-08-21T10:47:49;30.50;99.90
8489;DHT22;4281;45.772;12.852;2022-08-21T10:50:30;30.40;99.90
8489;DHT22;4281;45.772;12.852;2022-08-21T10:53:26;30.60;99.90
8489;DHT22;4281;45.772;12.852;2022-08-21T10:56:00;30.60;99.90
8489;DHT22;4281;45.772;12.852;2022-08-21T10:58:31;30.70;99.90
8489;DHT22;4281;45.772;12.852;2022-08-21T11:01:07;30.60;99.90
8489;DHT22;4281;45.772;12.852;2022-08-21T11:03:43;30.70;99.90
8489;DHT22;4281;45.772;12.852;2022-08-21T11:06:17;30.80;99.90
8489;DHT22;4281;45.772;12.852;2022-08-21T11:08:51;30.80;99.90
8489;DHT22;4281;45.772;12.852;2022-08-21T11:11:25;30.90;99.90
8489;DHT22;4281;45.772;12.852;2022-08-21T11:14:04;31.00;99.90
8489;DHT22;4281;45.772;12.852;2022-08-21T11:16:40;31.00;99.90
8489;DHT22;4281;45.772;12.852;2022-08-21T11:19:16;31.10;99.90
8489;DHT22;4281;45.772;12.852;2022-08-21T11:21:51;30.90;99.90
8489;DHT22;4281;45.772;12.852;2022-08-21T11:24:30;30.90;99.90
8489;DHT22;4281;45.772;12.852;2022-08-21T11:27:03;31.00;99.90
8489;DHT22;4281;45.772;12.852;2022-08-21T11:29:35;31.00;99.90
8489;DHT22;4281;45.772;12.852;2022-08-21T11:32:22;31.00;99.90
8489;DHT22;4281;45.772;12.852;2022-08-21T11:35:01;31.10;99.90
8489;DHT22;4281;45.772;12.852;2022-08-21T11:37:48;31.10;99.90
8489;DHT22;4281;45.772;12.852;2022-08-21T11:40:26;31.10;99.90
8489;DHT22;4281;45.772;12.852;2022-08-21T11:43:03;31.00;99.90
8489;DHT22;4281;45.772;12.852;2022-08-21T11:45:39;31.00;99.90
8489;DHT22;4281;45.772;12.852;2022-08-21T11:48:16;30.90;99.90
8489;DHT22;4281;45.772;12.852;2022-08-21T11:50:52;31.00;99.90
8489;DHT22;4281;45.772;12.852;2022-08-21T11:53:24;31.00;99.90
8489;DHT22;4281;45.772;12.852;2022-08-21T11:56:01;31.30;99.90
8489;DHT22;4281;45.772;12.852;2022-08-21T11:58:37;31.40;99.90
8489;DHT22;4281;45.772;12.852;2022-08-21T12:01:09;31.30;99.90
8489;DHT22;4281;45.772;12.852;2022-08-21T12:03:44;31.40;99.90
8489;DHT22;4281;45.772;12.852;2022-08-21T12:06:29;31.40;99.90
8489;DHT22;4281;45.772;12.852;2022-08-21T12:09:00;31.50;99.90
8489;DHT22;4281;45.772;12.852;2022-08-21T12:11:29;31.60;99.90
8489;DHT22;4281;45.772;12.852;2022-08-21T12:14:10;31.50;99.90
8489;DHT22;4281;45.772;12.852;2022-08-21T12:16:41;31.30;99.90
8489;DHT22;4281;45.772;12.852;2022-08-21T12:19:14;31.50;99.90
8489;DHT22;4281;45.772;12.852;2022-08-21T12:22:06;31.40;99.90
8489;DHT22;4281;45.772;12.852;2022-08-21T12:24:39;31.40;99.90
8489;DHT22;4281;45.772;12.852;2022-08-21T12:27:30;31.40;99.90
8489;DHT22;4281;45.772;12.852;2022-08-21T12:30:00;31.40;99.90
8489;DHT22;4281;45.772;12.852;2022-08-21T12:32:41;31.30;99.90
8489;DHT22;4281;45.772;12.852;2022-08-21T12:35:15;31.30;99.90
8489;DHT22;4281;45.772;12.852;2022-08-21T12:37:57;31.30;99.90
8489;DHT22;4281;45.772;12.852;2022-08-21T12:40:31;31.20;99.90
8489;DHT22;4281;45.772;12.852;2022-08-21T12:43:00;31.30;99.90
8489;DHT22;4281;45.772;12.852;2022-08-21T12:45:33;31.40;99.90
8489;DHT22;4281;45.772;12.852;2022-08-21T12:48:07;31.50;99.90
8489;DHT22;4281;45.772;12.852;2022-08-21T12:50:41;31.50;99.90
8489;DHT22;4281;45.772;12.852;2022-08-21T12:53:21;31.50;99.90
8489;DHT22;4281;45.772;12.852;2022-08-21T12:55:52;31.30;99.90
8489;DHT22;4281;45.772;12.852;2022-08-21T12:58:23;31.30;99.90
8489;DHT22;4281;45.772;12.852;2022-08-21T13:00:54;31.20;99.90
8489;DHT22;4281;45.772;12.852;2022-08-21T13:03:23;31.00;99.90
8489;DHT22;4281;45.772;12.852;2022-08-21T13:05:54;30.90;99.90
8489;DHT22;4281;45.772;12.852;2022-08-21T13:08:23;31.00;99.90
8489;DHT22;4281;45.772;12.852;2022-08-21T13:10:59;30.80;99.90
8489;DHT22;4281;45.772;12.852;2022-08-21T13:13:41;30.70;99.90
8489;DHT22;4281;45.772;12.852;2022-08-21T13:16:20;30.70;99.90
8489;DHT22;4281;45.772;12.852;2022-08-21T13:18:57;30.50;99.90
8489;DHT22;4281;45.772;12.852;2022-08-21T13:21:33;30.40;99.90
8489;DHT22;4281;45.772;12.852;2022-08-21T13:24:16;30.10;99.90
8489;DHT22;4281;45.772;12.852;2022-08-21T13:27:19;30.30;99.90
8489;DHT22;4281;45.772;12.852;2022-08-21T13:29:47;30.40;99.90
8489;DHT22;4281;45.772;12.852;2022-08-21T13:32:30;30.70;99.90
8489;DHT22;4281;45.772;12.852;2022-08-21T13:35:06;30.90;99.90
8489;DHT22;4281;45.772;12.852;2022-08-21T13:37:39;31.00;99.90
8489;DHT22;4281;45.772;12.852;2022-08-21T13:40:10;31.00;99.90
8489;DHT22;4281;45.772;12.852;2022-08-21T13:42:42;31.10;99.90
8489;DHT22;4281;45.772;12.852;2022-08-21T13:45:22;31.30;99.90
8489;DHT22;4281;45.772;12.852;2022-08-21T13:47:52;31.30;99.90
8489;DHT22;4281;45.772;12.852;2022-08-21T13:50:23;31.30;99.90
8489;DHT22;4281;45.772;12.852;2022-08-21T13:53:01;31.30;99.90
8489;DHT22;4281;45.772;12.852;2022-08-21T13:55:38;31.40;99.90
8489;DHT22;4281;45.772;12.852;2022-08-21T13:58:08;31.40;99.90
8489;DHT22;4281;45.772;12.852;2022-08-21T14:00:45;31.40;99.90
8489;DHT22;4281;45.772;12.852;2022-08-21T14:03:26;31.50;99.90
8489;DHT22;4281;45.772;12.852;2022-08-21T14:05:55;31.50;99.90
8489;DHT22;4281;45.772;12.852;2022-08-21T14:08:31;31.40;99.90
8489;DHT22;4281;45.772;12.852;2022-08-21T14:11:03;31.40;99.90
8489;DHT22;4281;45.772;12.852;2022-08-21T14:13:38;31.40;99.90
8489;DHT22;4281;45.772;12.852;2022-08-21T14:16:14;31.50;99.90
8489;DHT22;4281;45.772;12.852;2022-08-21T14:18:48;31.50;99.90
8489;DHT22;4281;45.772;12.852;2022-08-21T14:21:28;31.70;99.90
8489;DHT22;4281;45.772;12.852;2022-08-21T14:24:05;31.70;99.90
8489;DHT22;4281;45.772;12.852;2022-08-21T14:26:36;31.60;99.90
8489;DHT22;4281;45.772;12.852;2022-08-21T14:29:08;31.50;99.90
8489;DHT22;4281;45.772;12.852;2022-08-21T14:31:37;31.50;99.90
8489;DHT22;4281;45.772;12.852;2022-08-21T14:34:11;31.50;99.90
8489;DHT22;4281;45.772;12.852;2022-08-21T14:36:46;31.60;99.90
8489;DHT22;4281;45.772;12.852;2022-08-21T14:39:16;31.70;99.90
8489;DHT22;4281;45.772;12.852;2022-08-21T14:44:23;31.70;99.90
8489;DHT22;4281;45.772;12.852;2022-08-21T14:46:52;31.60;99.90
8489;DHT22;4281;45.772;12.852;2022-08-21T14:49:24;31.60;99.90
8489;DHT22;4281;45.772;12.852;2022-08-21T14:51:55;31.50;99.90
8489;DHT22;4281;45.772;12.852;2022-08-21T14:54:28;31.30;99.90
8489;DHT22;4281;45.772;12.852;2022-08-21T14:57:00;31.50;99.90
8489;DHT22;4281;45.772;12.852;2022-08-21T14:59:29;31.40;99.90
8489;DHT22;4281;45.772;12.852;2022-08-21T15:01:59;31.60;99.90
8489;DHT22;4281;45.772;12.852;2022-08-21T15:04:28;31.50;99.90
8489;DHT22;4281;45.772;12.852;2022-08-21T15:06:57;31.60;99.90
8489;DHT22;4281;45.772;12.852;2022-08-21T15:09:28;31.60;99.90
8489;DHT22;4281;45.772;12.852;2022-08-21T15:11:58;31.60;99.90
8489;DHT22;4281;45.772;12.852;2022-08-21T15:14:29;31.50;99.90
8489;DHT22;4281;45.772;12.852;2022-08-21T15:16:58;31.50;99.90
8489;DHT22;4281;45.772;12.852;2022-08-21T15:19:27;31.50;99.90
8489;DHT22;4281;45.772;12.852;2022-08-21T15:21:56;31.50;99.90
8489;DHT22;4281;45.772;12.852;2022-08-21T15:24:27;31.40;99.90
8489;DHT22;4281;45.772;12.852;2022-08-21T15:26:56;31.40;99.90
8489;DHT22;4281;45.772;12.852;2022-08-21T15:29:24;31.50;99.90
8489;DHT22;4281;45.772;12.852;2022-08-21T15:32:02;31.40;99.90
8489;DHT22;4281;45.772;12.852;2022-08-21T15:34:31;31.40;99.90
8489;DHT22;4281;45.772;12.852;2022-08-21T15:36:59;31.40;99.90
8489;DHT22;4281;45.772;12.852;2022-08-21T15:39:29;31.40;99.90
8489;DHT22;4281;45.772;12.852;2022-08-21T15:44:39;31.50;99.90
8489;DHT22;4281;45.772;12.852;2022-08-21T15:47:12;31.40;99.90
8489;DHT22;4281;45.772;12.852;2022-08-21T15:49:41;31.30;99.90
8489;DHT22;4281;45.772;12.852;2022-08-21T15:52:12;31.20;99.90
8489;DHT22;4281;45.772;12.852;2022-08-21T15:54:42;31.20;99.90
8489;DHT22;4281;45.772;12.852;2022-08-21T15:57:13;31.10;99.90
8489;DHT22;4281;45.772;12.852;2022-08-21T15:59:43;31.10;99.90
8489;DHT22;4281;45.772;12.852;2022-08-21T16:02:14;31.10;99.90
8489;DHT22;4281;45.772;12.852;2022-08-21T16:04:43;31.10;99.90
8489;DHT22;4281;45.772;12.852;2022-08-21T16:07:11;31.20;99.90
8489;DHT22;4281;45.772;12.852;2022-08-21T16:09:42;31.10;99.90
8489;DHT22;4281;45.772;12.852;2022-08-21T16:12:13;31.20;99.90
8489;DHT22;4281;45.772;12.852;2022-08-21T16:14:44;31.00;99.90
8489;DHT22;4281;45.772;12.852;2022-08-21T16:17:13;31.00;99.90
8489;DHT22;4281;45.772;12.852;2022-08-21T16:19:42;31.00;99.90
8489;DHT22;4281;45.772;12.852;2022-08-21T16:22:10;31.00;99.90
8489;DHT22;4281;45.772;12.852;2022-08-21T16:24:39;30.90;99.90
8489;DHT22;4281;45.772;12.852;2022-08-21T16:27:09;30.90;99.90
8489;DHT22;4281;45.772;12.852;2022-08-21T16:29:37;30.70;99.90
8489;DHT22;4281;45.772;12.852;2022-08-21T16:32:06;30.60;99.90